sensor_id;sensor_type;location;lat;lon;timestamp;temperature;humidity
43414;DHT22;29013;49.676;8.606;2022-10-26T00:00:44;13.4;99.9
43414;DHT22;29013;49.676;8.606;2022-10-26T00:06:11;13.4;99.9
43414;DHT22;29013;49.676;8.606;2022-10-26T00:11:34;13.4;99.9
43414;DHT22;29013;49.676;8.606;2022-10-26T00:17:02;13.4;99.9
43414;DHT22;29013;49.676;8.606;2022-10-26T00:22:29;13.5;99.9
43414;DHT22;29013;49.676;8.606;2022-10-26T00:27:58;13.5;99.9
43414;DHT22;29013;49.676;8.606;2022-10-26T00:33:21;13.5;99.9
43414;DHT22;29013;49.676;8.606;2022-10-26T00:38:48;13.5;99.9
43414;DHT22;29013;49.676;8.606;2022-10-26T00:50:07;13.5;99.9
43414;DHT22;29013;49.676;8.606;2022-10-26T00:55:28;13.4;99.9
43414;DHT22;29013;49.676;8.606;2022-10-26T01:00:54;13.3;99.9
43414;DHT22;29013;49.676;8.606;2022-10-26T01:06:18;13.4;99.9
43414;DHT22;29013;49.676;8.606;2022-10-26T01:11:44;13.4;99.9
43414;DHT22;29013;49.676;8.606;2022-10-26T01:17:19;13.3;99.9
43414;DHT22;29013;49.676;8.606;2022-10-26T01:22:39;13.4;99.9
43414;DHT22;29013;49.676;8.606;2022-10-26T01:28:06;13.4;99.9
43414;DHT22;29013;49.676;8.606;2022-10-26T01:33:36;13.4;99.9
43414;DHT22;29013;49.676;8.606;2022-10-26T01:39:04;13.4;99.9
43414;DHT22;29013;49.676;8.606;2022-10-26T01:44:32;13.4;99.9
43414;DHT22;29013;49.676;8.606;2022-10-26T01:49:55;13.4;99.9
43414;DHT22;29013;49.676;8.606;2022-10-26T01:55:42;13.4;99.9
43414;DHT22;29013;49.676;8.606;2022-10-26T02:01:08;13.5;99.9
43414;DHT22;29013;49.676;8.606;2022-10-26T02:06:35;13.5;99.9
43414;DHT22;29013;49.676;8.606;2022-10-26T02:12:00;13.5;99.9
43414;DHT22;29013;49.676;8.606;2022-10-26T02:17:28;13.5;99.9
43414;DHT22;29013;49.676;8.606;2022-10-26T02:22:53;13.5;99.9
43414;DHT22;29013;49.676;8.606;2022-10-26T02:28:21;13.4;99.9
43414;DHT22;29013;49.676;8.606;2022-10-26T02:33:48;13.3;99.9
43414;DHT22;29013;49.676;8.606;2022-10-26T02:39:15;13.2;99.9
43414;DHT22;29013;49.676;8.606;2022-10-26T02:44:43;13.3;99.9
43414;DHT22;29013;49.676;8.606;2022-10-26T02:50:08;13.3;99.9
43414;DHT22;29013;49.676;8.606;2022-10-26T02:55:35;13.3;99.9
43414;DHT22;29013;49.676;8.606;2022-10-26T03:01:01;13.4;99.9
43414;DHT22;29013;49.676;8.606;2022-10-26T03:06:28;13.4;99.9
43414;DHT22;29013;49.676;8.606;2022-10-26T03:11:53;13.5;99.9
43414;DHT22;29013;49.676;8.606;2022-10-26T03:17:21;13.4;99.9
43414;DHT22;29013;49.676;8.606;2022-10-26T03:22:45;13.4;99.9
43414;DHT22;29013;49.676;8.606;2022-10-26T03:28:05;13.5;99.9
43414;DHT22;29013;49.676;8.606;2022-10-26T03:33:27;13.4;99.9
43414;DHT22;29013;49.676;8.606;2022-10-26T03:38:50;13.4;99.9
43414;DHT22;29013;49.676;8.606;2022-10-26T03:44:14;13.4;99.9
43414;DHT22;29013;49.676;8.606;2022-10-26T03:49:36;13.4;99.9
43414;DHT22;29013;49.676;8.606;2022-10-26T03:54:58;13.4;99.9
43414;DHT22;29013;49.676;8.606;2022-10-26T04:00:20;13.4;99.9
43414;DHT22;29013;49.676;8.606;2022-10-26T04:05:42;13.3;99.9
43414;DHT22;29013;49.676;8.606;2022-10-26T04:11:03;13.3;99.9
43414;DHT22;29013;49.676;8.606;2022-10-26T04:16:30;13.3;99.9
43414;DHT22;29013;49.676;8.606;2022-10-26T04:21:56;13.4;99.9
43414;DHT22;29013;49.676;8.606;2022-10-26T04:27:22;13.4;99.9
43414;DHT22;29013;49.676;8.606;2022-10-26T04:32:48;13.4;99.9
43414;DHT22;29013;49.676;8.606;2022-10-26T04:38:13;13.3;99.9
43414;DHT22;29013;49.676;8.606;2022-10-26T04:43:38;13.4;99.9
43414;DHT22;29013;49.676;8.606;2022-10-26T04:49:03;13.3;99.9
43414;DHT22;29013;49.676;8.606;2022-10-26T04:54:28;13.3;99.9
43414;DHT22;29013;49.676;8.606;2022-10-26T04:59:51;13.3;99.9
43414;DHT22;29013;49.676;8.606;2022-10-26T05:05:19;13.3;99.9
43414;DHT22;29013;49.676;8.606;2022-10-26T05:10:48;13.3;99.9
43414;DHT22;29013;49.676;8.606;2022-10-26T05:16:12;13.2;99.9
43414;DHT22;29013;49.676;8.606;2022-10-26T05:21:34;13.2;99.9
43414;DHT22;29013;49.676;8.606;2022-10-26T05:26:59;13.1;99.9
43414;DHT22;29013;49.676;8.606;2022-10-26T05:32:24;13.2;99.9
43414;DHT22;29013;49.676;8.606;2022-10-26T05:37:50;13.2;99.9
43414;DHT22;29013;49.676;8.606;2022-10-26T05:43:16;13.2;99.9
43414;DHT22;29013;49.676;8.606;2022-10-26T05:48:42;13.3;99.9
43414;DHT22;29013;49.676;8.606;2022-10-26T05:54:07;13.3;99.9
43414;DHT22;29013;49.676;8.606;2022-10-26T05:59:31;13.4;99.9
43414;DHT22;29013;49.676;8.606;2022-10-26T06:04:57;13.4;99.9
43414;DHT22;29013;49.676;8.606;2022-10-26T06:10:27;13.4;99.9
43414;DHT22;29013;49.676;8.606;2022-10-26T06:15:56;13.5;99.9
43414;DHT22;29013;49.676;8.606;2022-10-26T06:21:30;13.5;99.9
43414;DHT22;29013;49.676;8.606;2022-10-26T06:26:53;13.5;99.9
43414;DHT22;29013;49.676;8.606;2022-10-26T06:32:13;13.5;99.9
43414;DHT22;29013;49.676;8.606;2022-10-26T06:37:41;13.5;99.9
43414;DHT22;29013;49.676;8.606;2022-10-26T06:43:10;13.5;99.9
43414;DHT22;29013;49.676;8.606;2022-10-26T06:48:42;13.5;99.9
43414;DHT22;29013;49.676;8.606;2022-10-26T06:54:04;13.6;99.9
43414;DHT22;29013;49.676;8.606;2022-10-26T06:59:36;13.7;99.9
43414;DHT22;29013;49.676;8.606;2022-10-26T07:04:53;13.9;99.9
43414;DHT22;29013;49.676;8.606;2022-10-26T07:10:21;13.9;99.9
43414;DHT22;29013;49.676;8.606;2022-10-26T07:15:46;14.1;99.9
43414;DHT22;29013;49.676;8.606;2022-10-26T07:21:14;14.2;99.9
43414;DHT22;29013;49.676;8.606;2022-10-26T07:26:36;14.4;99.9
43414;DHT22;29013;49.676;8.606;2022-10-26T07:32:03;14.6;99.9
43414;DHT22;29013;49.676;8.606;2022-10-26T07:37:29;14.7;99.9
43414;DHT22;29013;49.676;8.606;2022-10-26T07:42:56;14.9;99.9
43414;DHT22;29013;49.676;8.606;2022-10-26T07:48:24;15.0;99.9
43414;DHT22;29013;49.676;8.606;2022-10-26T07:53:52;15.2;99.9
43414;DHT22;29013;49.676;8.606;2022-10-26T07:59:19;15.3;99.9
43414;DHT22;29013;49.676;8.606;2022-10-26T08:04:42;15.3;99.9
43414;DHT22;29013;49.676;8.606;2022-10-26T08:10:10;15.3;99.9
43414;DHT22;29013;49.676;8.606;2022-10-26T08:15:33;15.5;99.9
43414;DHT22;29013;49.676;8.606;2022-10-26T08:20:59;15.6;99.9
43414;DHT22;29013;49.676;8.606;2022-10-26T08:26:24;15.7;99.9
43414;DHT22;29013;49.676;8.606;2022-10-26T08:31:52;15.8;99.9
43414;DHT22;29013;49.676;8.606;2022-10-26T08:37:18;15.9;99.9
43414;DHT22;29013;49.676;8.606;2022-10-26T08:42:46;16.1;99.9
43414;DHT22;29013;49.676;8.606;2022-10-26T08:48:14;16.4;99.9
43414;DHT22;29013;49.676;8.606;2022-10-26T08:53:37;16.6;99.9
43414;DHT22;29013;49.676;8.606;2022-10-26T08:59:05;16.8;99.9
43414;DHT22;29013;49.676;8.606;2022-10-26T09:04:30;16.8;99.9
43414;DHT22;29013;49.676;8.606;2022-10-26T09:09:56;17.0;99.9
43414;DHT22;29013;49.676;8.606;2022-10-26T09:15:25;17.0;99.9
43414;DHT22;29013;49.676;8.606;2022-10-26T09:26:31;16.9;99.9
43414;DHT22;29013;49.676;8.606;2022-10-26T09:31:55;16.9;99.9
43414;DHT22;29013;49.676;8.606;2022-10-26T09:37:22;16.9;99.9
43414;DHT22;29013;49.676;8.606;2022-10-26T09:42:48;17.0;99.9
43414;DHT22;29013;49.676;8.606;2022-10-26T09:48:11;17.2;99.9
43414;DHT22;29013;49.676;8.606;2022-10-26T09:53:32;17.3;99.9
43414;DHT22;29013;49.676;8.606;2022-10-26T09:58:57;17.6;99.9
43414;DHT22;29013;49.676;8.606;2022-10-26T10:04:22;17.9;99.9
43414;DHT22;29013;49.676;8.606;2022-10-26T10:09:51;18.3;99.9
43414;DHT22;29013;49.676;8.606;2022-10-26T10:15:20;18.4;99.9
43414;DHT22;29013;49.676;8.606;2022-10-26T10:20:48;18.4;99.9
43414;DHT22;29013;49.676;8.606;2022-10-26T10:26:09;18.4;99.9
43414;DHT22;29013;49.676;8.606;2022-10-26T10:31:43;18.5;99.9
43414;DHT22;29013;49.676;8.606;2022-10-26T10:37:13;18.5;99.9
43414;DHT22;29013;49.676;8.606;2022-10-26T10:42:45;18.9;99.9
43414;DHT22;29013;49.676;8.606;2022-10-26T10:48:20;19.5;99.9
43414;DHT22;29013;49.676;8.606;2022-10-26T10:53:47;19.5;99.9
43414;DHT22;29013;49.676;8.606;2022-10-26T10:59:32;19.6;99.9
43414;DHT22;29013;49.676;8.606;2022-10-26T11:10:45;20.7;99.9
43414;DHT22;29013;49.676;8.606;2022-10-26T11:16:15;21.3;99.9
43414;DHT22;29013;49.676;8.606;2022-10-26T11:21:38;21.7;99.9
43414;DHT22;29013;49.676;8.606;2022-10-26T11:27:01;21.8;99.9
43414;DHT22;29013;49.676;8.606;2022-10-26T11:32:22;21.7;99.9
43414;DHT22;29013;49.676;8.606;2022-10-26T11:37:51;21.3;99.9
43414;DHT22;29013;49.676;8.606;2022-10-26T11:43:17;21.1;99.9
43414;DHT22;29013;49.676;8.606;2022-10-26T11:48:45;20.9;99.9
43414;DHT22;29013;49.676;8.606;2022-10-26T11:54:08;20.7;99.9
43414;DHT22;29013;49.676;8.606;2022-10-26T11:59:34;20.7;99.9
43414;DHT22;29013;49.676;8.606;2022-10-26T12:04:56;20.6;99.9
43414;DHT22;29013;49.676;8.606;2022-10-26T12:10:27;20.5;99.9
43414;DHT22;29013;49.676;8.606;2022-10-26T12:15:52;20.5;99.9
43414;DHT22;29013;49.676;8.606;2022-10-26T12:21:13;20.5;99.9
43414;DHT22;29013;49.676;8.606;2022-10-26T12:26:46;20.5;99.9
43414;DHT22;29013;49.676;8.606;2022-10-26T12:38:53;20.8;99.9
43414;DHT22;29013;49.676;8.606;2022-10-26T12:44:01;21.0;99.9
43414;DHT22;29013;49.676;8.606;2022-10-26T13:01:45;22.7;99.8
43414;DHT22;29013;49.676;8.606;2022-10-26T13:07:17;23.0;99.2
43414;DHT22;29013;49.676;8.606;2022-10-26T13:12:44;23.1;99.4
43414;DHT22;29013;49.676;8.606;2022-10-26T13:18:13;23.2;98.9
43414;DHT22;29013;49.676;8.606;2022-10-26T13:23:40;23.4;99.2
43414;DHT22;29013;49.676;8.606;2022-10-26T13:29:07;23.4;99.2
43414;DHT22;29013;49.676;8.606;2022-10-26T13:34:35;23.3;98.6
43414;DHT22;29013;49.676;8.606;2022-10-26T13:40:04;23.2;98.4
43414;DHT22;29013;49.676;8.606;2022-10-26T13:45:28;22.8;99.0
43414;DHT22;29013;49.676;8.606;2022-10-26T13:50:55;22.4;99.5
43414;DHT22;29013;49.676;8.606;2022-10-26T13:56:29;22.1;99.8
43414;DHT22;29013;49.676;8.606;2022-10-26T14:02:06;21.8;99.9
43414;DHT22;29013;49.676;8.606;2022-10-26T14:07:32;21.7;99.9
43414;DHT22;29013;49.676;8.606;2022-10-26T14:12:56;21.5;99.9
43414;DHT22;29013;49.676;8.606;2022-10-26T14:18:25;21.4;99.9
43414;DHT22;29013;49.676;8.606;2022-10-26T14:23:51;21.2;99.9
43414;DHT22;29013;49.676;8.606;2022-10-26T14:29:18;21.1;99.9
43414;DHT22;29013;49.676;8.606;2022-10-26T14:34:47;21.1;99.9
43414;DHT22;29013;49.676;8.606;2022-10-26T14:40:18;21.0;99.9
43414;DHT22;29013;49.676;8.606;2022-10-26T14:45:45;20.9;99.9
43414;DHT22;29013;49.676;8.606;2022-10-26T14:51:16;20.9;99.9
43414;DHT22;29013;49.676;8.606;2022-10-26T14:56:41;20.9;99.9
43414;DHT22;29013;49.676;8.606;2022-10-26T15:02:10;20.9;99.9
43414;DHT22;29013;49.676;8.606;2022-10-26T15:07:37;20.9;99.9
43414;DHT22;29013;49.676;8.606;2022-10-26T15:13:15;20.8;99.9
43414;DHT22;29013;49.676;8.606;2022-10-26T15:18:38;20.8;99.9
43414;DHT22;29013;49.676;8.606;2022-10-26T15:24:16;20.7;99.9
43414;DHT22;29013;49.676;8.606;2022-10-26T15:29:41;20.6;99.9
43414;DHT22;29013;49.676;8.606;2022-10-26T15:35:26;20.5;99.9
43414;DHT22;29013;49.676;8.606;2022-10-26T15:40:52;20.4;99.9
43414;DHT22;29013;49.676;8.606;2022-10-26T15:46:18;20.2;99.9
43414;DHT22;29013;49.676;8.606;2022-10-26T15:51:44;20.1;99.9
43414;DHT22;29013;49.676;8.606;2022-10-26T15:57:07;19.9;99.9
43414;DHT22;29013;49.676;8.606;2022-10-26T16:02:31;19.9;99.9
43414;DHT22;29013;49.676;8.606;2022-10-26T16:07:56;19.9;99.9
43414;DHT22;29013;49.676;8.606;2022-10-26T16:13:22;19.7;99.9
43414;DHT22;29013;49.676;8.606;2022-10-26T16:18:46;19.6;99.9
43414;DHT22;29013;49.676;8.606;2022-10-26T16:24:10;19.5;99.9
43414;DHT22;29013;49.676;8.606;2022-10-26T16:29:30;19.4;99.9
43414;DHT22;29013;49.676;8.606;2022-10-26T16:34:58;19.3;99.9
43414;DHT22;29013;49.676;8.606;2022-10-26T16:40:26;19.2;99.9
43414;DHT22;29013;49.676;8.606;2022-10-26T16:45:52;19.2;99.9
43414;DHT22;29013;49.676;8.606;2022-10-26T16:51:19;19.1;99.9
43414;DHT22;29013;49.676;8.606;2022-10-26T16:56:42;19.1;99.9
43414;DHT22;29013;49.676;8.606;2022-10-26T17:02:07;19.0;99.9
43414;DHT22;29013;49.676;8.606;2022-10-26T17:07:34;18.7;99.9
43414;DHT22;29013;49.676;8.606;2022-10-26T17:13:02;18.6;99.9
43414;DHT22;29013;49.676;8.606;2022-10-26T17:18:28;18.4;99.9
43414;DHT22;29013;49.676;8.606;2022-10-26T17:23:55;18.2;99.9
43414;DHT22;29013;49.676;8.606;2022-10-26T17:29:21;18.1;99.9
43414;DHT22;29013;49.676;8.606;2022-10-26T17:34:48;18.1;99.9
43414;DHT22;29013;49.676;8.606;2022-10-26T17:40:17;18.0;99.9
43414;DHT22;29013;49.676;8.606;2022-10-26T17:45:39;17.9;99.9
43414;DHT22;29013;49.676;8.606;2022-10-26T17:51:08;17.8;99.9
43414;DHT22;29013;49.676;8.606;2022-10-26T17:56:33;17.7;99.9
43414;DHT22;29013;49.676;8.606;2022-10-26T18:01:59;17.6;99.9
43414;DHT22;29013;49.676;8.606;2022-10-26T18:07:26;17.5;99.9
43414;DHT22;29013;49.676;8.606;2022-10-26T18:12:53;17.5;99.9
43414;DHT22;29013;49.676;8.606;2022-10-26T18:18:19;17.3;99.9
43414;DHT22;29013;49.676;8.606;2022-10-26T18:23:45;17.2;99.9
43414;DHT22;29013;49.676;8.606;2022-10-26T18:29:13;17.2;99.9
43414;DHT22;29013;49.676;8.606;2022-10-26T18:34:41;17.1;99.9
43414;DHT22;29013;49.676;8.606;2022-10-26T18:40:06;17.1;99.9
43414;DHT22;29013;49.676;8.606;2022-10-26T18:45:29;17.0;99.9
43414;DHT22;29013;49.676;8.606;2022-10-26T18:50:56;16.9;99.9
43414;DHT22;29013;49.676;8.606;2022-10-26T18:56:21;16.9;99.9
43414;DHT22;29013;49.676;8.606;2022-10-26T19:01:50;16.8;99.9
43414;DHT22;29013;49.676;8.606;2022-10-26T19:07:16;16.7;99.9
43414;DHT22;29013;49.676;8.606;2022-10-26T19:12:42;16.6;99.9
43414;DHT22;29013;49.676;8.606;2022-10-26T19:18:04;16.5;99.9
43414;DHT22;29013;49.676;8.606;2022-10-26T19:23:35;16.4;99.9
43414;DHT22;29013;49.676;8.606;2022-10-26T19:28:58;16.3;99.9
43414;DHT22;29013;49.676;8.606;2022-10-26T19:34:23;16.2;99.9
43414;DHT22;29013;49.676;8.606;2022-10-26T19:39:48;16.1;99.9
43414;DHT22;29013;49.676;8.606;2022-10-26T19:45:13;16.1;99.9
43414;DHT22;29013;49.676;8.606;2022-10-26T19:50:34;16.0;99.9
43414;DHT22;29013;49.676;8.606;2022-10-26T19:55:59;16.0;99.9
43414;DHT22;29013;49.676;8.606;2022-10-26T20:01:20;16.0;99.9
43414;DHT22;29013;49.676;8.606;2022-10-26T20:06:42;16.0;99.9
43414;DHT22;29013;49.676;8.606;2022-10-26T20:12:06;16.1;99.9
43414;DHT22;29013;49.676;8.606;2022-10-26T20:17:30;16.0;99.9
43414;DHT22;29013;49.676;8.606;2022-10-26T20:22:56;15.9;99.9
43414;DHT22;29013;49.676;8.606;2022-10-26T20:28:20;15.9;99.9
43414;DHT22;29013;49.676;8.606;2022-10-26T20:33:44;15.8;99.9
43414;DHT22;29013;49.676;8.606;2022-10-26T20:39:12;15.8;99.9
43414;DHT22;29013;49.676;8.606;2022-10-26T20:44:34;15.8;99.9
43414;DHT22;29013;49.676;8.606;2022-10-26T20:50:01;15.8;99.9
43414;DHT22;29013;49.676;8.606;2022-10-26T20:55:29;15.8;99.9
43414;DHT22;29013;49.676;8.606;2022-10-26T21:00:55;15.7;99.9
43414;DHT22;29013;49.676;8.606;2022-10-26T21:06:22;15.5;99.9
43414;DHT22;29013;49.676;8.606;2022-10-26T21:11:45;15.5;99.9
43414;DHT22;29013;49.676;8.606;2022-10-26T21:17:09;15.5;99.9
43414;DHT22;29013;49.676;8.606;2022-10-26T21:22:37;15.4;99.9
43414;DHT22;29013;49.676;8.606;2022-10-26T21:27:58;15.4;99.9
43414;DHT22;29013;49.676;8.606;2022-10-26T21:33:23;15.4;99.9
43414;DHT22;29013;49.676;8.606;2022-10-26T21:38:51;15.4;99.9
43414;DHT22;29013;49.676;8.606;2022-10-26T21:44:16;15.4;99.9
43414;DHT22;29013;49.676;8.606;2022-10-26T21:49:41;15.4;99.9
43414;DHT22;29013;49.676;8.606;2022-10-26T21:55:09;15.3;99.9
43414;DHT22;29013;49.676;8.606;2022-10-26T22:00:36;15.3;99.9
43414;DHT22;29013;49.676;8.606;2022-10-26T22:06:05;15.4;99.9
43414;DHT22;29013;49.676;8.606;2022-10-26T22:11:26;15.3;99.9
43414;DHT22;29013;49.676;8.606;2022-10-26T22:16:52;15.3;99.9
43414;DHT22;29013;49.676;8.606;2022-10-26T22:22:18;15.2;99.9
43414;DHT22;29013;49.676;8.606;2022-10-26T22:27:42;15.1;99.9
43414;DHT22;29013;49.676;8.606;2022-10-26T22:33:06;15.1;99.9
43414;DHT22;29013;49.676;8.606;2022-10-26T22:38:34;15.0;99.9
43414;DHT22;29013;49.676;8.606;2022-10-26T22:44:00;15.0;99.9
43414;DHT22;29013;49.676;8.606;2022-10-26T22:49:25;14.9;99.9
43414;DHT22;29013;49.676;8.606;2022-10-26T22:54:47;14.8;99.9
43414;DHT22;29013;49.676;8.606;2022-10-26T23:00:16;14.7;99.9
43414;DHT22;29013;49.676;8.606;2022-10-26T23:05:43;14.7;99.9
43414;DHT22;29013;49.676;8.606;2022-10-26T23:11:04;14.6;99.9
43414;DHT22;29013;49.676;8.606;2022-10-26T23:16:28;14.5;99.9
43414;DHT22;29013;49.676;8.606;2022-10-26T23:21:53;14.4;99.9
43414;DHT22;29013;49.676;8.606;2022-10-26T23:27:18;14.3;99.9
43414;DHT22;29013;49.676;8.606;2022-10-26T23:32:44;14.4;99.9
43414;DHT22;29013;49.676;8.606;2022-10-26T23:38:11;14.3;99.9
43414;DHT22;29013;49.676;8.606;2022-10-26T23:43:38;14.2;99.9
43414;DHT22;29013;49.676;8.606;2022-10-26T23:49:00;14.2;99.9
43414;DHT22;29013;49.676;8.606;2022-10-26T23:54:28;14.1;99.9
43414;DHT22;29013;49.676;8.606;2022-10-26T23:59:52;14.0;99.9
